Time;durP1;ratioP1;P1;durP2;ratioP2;P2;SDS_P1;SDS_P2;PMS_P1;PMS_P2;Temp;Humidity;BMP_temperature;BMP_pressure;BME280_temperature;BME280_humidity;BME280_pressure;Samples;Min_cycle;Max_cycle;Signal;HPM_P1;HPM_P2
2022/05/25 00:00:09;;;;;;;;;;;14.20;99.90;;;;;;5052769;28;20203;-62
2022/05/25 00:02:37;;;;;;;;;;;14.20;99.90;;;;;;5053062;28;20672;-61
2022/05/25 00:05:06;;;;;;;;;;;14.30;99.90;;;;;;5053944;28;20757;-61
2022/05/25 00:07:34;;;;;;;;;;;14.30;99.90;;;;;;5045583;28;20285;-63
2022/05/25 00:10:05;;;;;;;;;;;14.20;99.90;;;;;;5047947;28;20606;-61
2022/05/25 00:12:35;;;;;;;;;;;14.20;99.90;;;;;;5047916;28;20202;-61
2022/05/25 00:15:05;;;;;;;;;;;14.20;99.90;;;;;;5045714;28;20637;-61
2022/05/25 00:17:32;;;;;;;;;;;14.20;99.90;;;;;;5053977;28;20234;-61
2022/05/25 00:19:59;;;;;;;;;;;14.20;99.90;;;;;;5053783;28;20664;-61
2022/05/25 00:22:40;;;;;;;;;;;14.20;99.90;;;;;;5052264;28;20268;-61
2022/05/25 00:25:08;;;;;;;;;;;14.20;99.90;;;;;;5049510;28;20069;-61
2022/05/25 00:27:37;;;;;;;;;;;14.30;99.90;;;;;;5050547;28;20208;-61
2022/05/25 00:30:08;;;;;;;;;;;14.30;99.90;;;;;;5047026;28;20286;-63
2022/05/25 00:32:35;;;;;;;;;;;14.20;99.90;;;;;;5052379;28;20206;-64
2022/05/25 00:35:06;;;;;;;;;;;14.20;99.90;;;;;;5050859;28;20679;-61
2022/05/25 00:37:35;;;;;;;;;;;14.00;99.90;;;;;;5052056;28;20286;-61
2022/05/25 00:40:05;;;;;;;;;;;14.00;99.90;;;;;;5052867;28;20317;-61
2022/05/25 00:42:35;;;;;;;;;;;14.10;99.90;;;;;;5043257;28;20246;-61
2022/05/25 00:45:06;;;;;;;;;;;14.10;99.90;;;;;;5049841;28;20229;-64
2022/05/25 00:47:35;;;;;;;;;;;14.10;99.90;;;;;;5051548;28;20229;-61
2022/05/25 00:50:04;;;;;;;;;;;14.10;99.90;;;;;;5048570;28;20190;-63
2022/05/25 00:52:32;;;;;;;;;;;14.20;99.90;;;;;;5051619;28;20244;-62
2022/05/25 00:55:01;;;;;;;;;;;14.20;99.90;;;;;;5051597;28;20256;-62
2022/05/25 00:57:35;;;;;;;;;;;14.20;99.90;;;;;;5050852;28;20663;-62
2022/05/25 01:00:07;;;;;;;;;;;14.20;99.90;;;;;;5050708;28;20696;-62
2022/05/25 01:02:36;;;;;;;;;;;14.20;99.90;;;;;;5046670;28;20241;-62
2022/05/25 01:05:04;;;;;;;;;;;14.20;99.90;;;;;;5051394;28;20190;-62
2022/05/25 01:07:49;;;;;;;;;;;14.10;99.90;;;;;;5050858;28;20620;-62
2022/05/25 01:10:25;;;;;;;;;;;13.90;99.90;;;;;;5052641;28;20569;-62
2022/05/25 01:13:00;;;;;;;;;;;13.80;99.90;;;;;;5045546;28;20703;-61
2022/05/25 01:15:42;;;;;;;;;;;13.70;99.90;;;;;;5046794;28;20222;-61
2022/05/25 01:18:14;;;;;;;;;;;13.60;99.90;;;;;;5049746;28;20298;-61
2022/05/25 01:20:44;;;;;;;;;;;13.40;99.90;;;;;;5051191;28;20233;-62
2022/05/25 01:23:23;;;;;;;;;;;13.40;99.90;;;;;;5044990;28;20234;-62
2022/05/25 01:26:03;;;;;;;;;;;13.40;99.90;;;;;;5047454;28;20226;-61
2022/05/25 01:28:37;;;;;;;;;;;13.40;99.90;;;;;;5045815;28;20272;-61
2022/05/25 01:31:09;;;;;;;;;;;13.30;99.90;;;;;;5049714;28;20218;-61
2022/05/25 01:33:40;;;;;;;;;;;13.30;99.90;;;;;;5050548;28;20198;-61
2022/05/25 01:36:11;;;;;;;;;;;13.30;99.90;;;;;;5050649;28;20199;-62
2022/05/25 01:38:42;;;;;;;;;;;13.20;99.90;;;;;;5051989;28;20641;-61
2022/05/25 01:41:20;;;;;;;;;;;13.00;99.90;;;;;;5047672;28;20237;-61
2022/05/25 01:43:49;;;;;;;;;;;13.10;99.90;;;;;;5044894;28;20206;-61
2022/05/25 01:46:20;;;;;;;;;;;13.10;99.90;;;;;;5050563;28;20285;-61
2022/05/25 01:48:48;;;;;;;;;;;13.20;99.90;;;;;;5047385;28;20668;-61
2022/05/25 01:51:19;;;;;;;;;;;13.30;99.90;;;;;;5050935;28;20195;-62
2022/05/25 01:53:55;;;;;;;;;;;13.40;99.90;;;;;;5048676;28;20233;-62
2022/05/25 01:56:24;;;;;;;;;;;13.50;99.90;;;;;;5052047;28;20230;-62
2022/05/25 01:58:53;;;;;;;;;;;13.50;99.90;;;;;;5049774;28;20226;-62
2022/05/25 02:01:23;;;;;;;;;;;13.50;99.90;;;;;;5043845;28;20226;-64
2022/05/25 02:06:44;;;;;;;;;;;13.50;99.90;;;;;;5050062;28;20264;-64
2022/05/25 02:09:16;;;;;;;;;;;13.60;99.90;;;;;;5051451;28;20203;-62
2022/05/25 02:11:45;;;;;;;;;;;13.50;99.90;;;;;;5047157;28;20618;-62
2022/05/25 02:14:22;;;;;;;;;;;13.50;99.90;;;;;;5034517;28;20217;-62
2022/05/25 02:16:57;;;;;;;;;;;13.50;99.90;;;;;;5049955;28;20218;-62
2022/05/25 02:19:27;;;;;;;;;;;13.60;99.90;;;;;;5049879;28;20252;-61
2022/05/25 02:21:56;;;;;;;;;;;13.50;99.90;;;;;;5045816;28;20237;-62
2022/05/25 02:24:28;;;;;;;;;;;13.50;99.90;;;;;;5050260;28;20194;-62
2022/05/25 02:27:00;;;;;;;;;;;13.50;99.90;;;;;;5051264;28;20711;-62
2022/05/25 02:29:31;;;;;;;;;;;13.50;99.90;;;;;;5047666;28;20613;-62
2022/05/25 02:32:03;;;;;;;;;;;13.40;99.90;;;;;;5050156;28;20259;-62
2022/05/25 02:34:31;;;;;;;;;;;13.20;99.90;;;;;;5051574;28;20214;-62
2022/05/25 02:36:59;;;;;;;;;;;13.10;99.90;;;;;;5047629;28;20206;-61
2022/05/25 02:39:27;;;;;;;;;;;13.00;99.90;;;;;;5048341;28;20289;-62
2022/05/25 02:41:56;;;;;;;;;;;12.90;99.90;;;;;;5044048;28;20676;-62
2022/05/25 02:44:24;;;;;;;;;;;12.80;99.90;;;;;;5047702;28;20278;-61
2022/05/25 02:46:52;;;;;;;;;;;12.70;99.90;;;;;;5046593;28;20255;-62
2022/05/25 02:49:21;;;;;;;;;;;12.70;99.90;;;;;;5045844;28;20194;-61
2022/05/25 02:51:49;;;;;;;;;;;12.70;99.90;;;;;;5048383;28;20226;-62
2022/05/25 02:54:21;;;;;;;;;;;12.80;99.90;;;;;;5048684;28;20198;-61
2022/05/25 02:56:49;;;;;;;;;;;13.00;99.90;;;;;;5050264;28;20226;-62
2022/05/25 02:59:17;;;;;;;;;;;13.00;99.90;;;;;;5042998;28;20225;-62
2022/05/25 03:01:45;;;;;;;;;;;12.90;99.90;;;;;;5046180;28;20627;-62
2022/05/25 03:04:12;;;;;;;;;;;12.90;99.90;;;;;;5048515;28;20305;-62
2022/05/25 03:06:42;;;;;;;;;;;12.90;99.90;;;;;;5050090;28;20292;-62
2022/05/25 03:09:09;;;;;;;;;;;13.00;99.90;;;;;;5072801;22;20214;-64
2022/05/25 03:11:43;;;;;;;;;;;13.00;99.90;;;;;;5044733;28;20329;-64
2022/05/25 03:14:10;;;;;;;;;;;13.00;99.90;;;;;;5043106;28;20286;-65
2022/05/25 03:16:38;;;;;;;;;;;13.10;99.90;;;;;;5052717;28;20223;-65
2022/05/25 03:19:07;;;;;;;;;;;13.10;99.90;;;;;;5056993;28;20193;-63
2022/05/25 03:21:34;;;;;;;;;;;13.00;99.90;;;;;;5055598;28;20255;-64
2022/05/25 03:24:03;;;;;;;;;;;12.90;99.90;;;;;;5057137;28;20216;-64
2022/05/25 03:26:31;;;;;;;;;;;12.80;99.90;;;;;;5060167;28;20197;-64
2022/05/25 03:28:59;;;;;;;;;;;12.90;99.90;;;;;;5058161;28;20220;-64
2022/05/25 03:31:27;;;;;;;;;;;12.80;99.90;;;;;;5059634;28;20618;-63
2022/05/25 03:33:54;;;;;;;;;;;12.90;99.90;;;;;;5057563;28;20548;-63
2022/05/25 03:36:23;;;;;;;;;;;12.90;99.90;;;;;;5061428;28;20674;-63
2022/05/25 03:38:51;;;;;;;;;;;13.00;99.90;;;;;;5058385;28;20195;-64
2022/05/25 03:41:21;;;;;;;;;;;13.00;99.90;;;;;;5061117;28;20237;-63
2022/05/25 03:43:49;;;;;;;;;;;13.00;99.90;;;;;;5048602;28;20202;-64
2022/05/25 03:46:17;;;;;;;;;;;12.90;99.90;;;;;;5059226;28;20247;-64
2022/05/25 03:48:44;;;;;;;;;;;13.00;99.90;;;;;;5055343;28;20568;-64
2022/05/25 03:51:12;;;;;;;;;;;12.90;99.90;;;;;;5062449;28;20273;-64
2022/05/25 03:53:40;;;;;;;;;;;12.80;99.90;;;;;;5057717;28;20234;-64
2022/05/25 03:56:08;;;;;;;;;;;12.80;99.90;;;;;;5061927;28;20221;-64
2022/05/25 03:58:37;;;;;;;;;;;12.70;99.90;;;;;;5057506;28;20681;-64
2022/05/25 04:01:05;;;;;;;;;;;12.70;99.90;;;;;;5052186;28;20285;-64
2022/05/25 04:03:32;;;;;;;;;;;12.50;99.90;;;;;;5060693;28;20281;-64
2022/05/25 04:06:00;;;;;;;;;;;12.40;99.90;;;;;;5055168;28;20259;-64
2022/05/25 04:08:28;;;;;;;;;;;12.50;99.90;;;;;;5056044;28;20295;-65
2022/05/25 04:10:56;;;;;;;;;;;12.40;99.90;;;;;;5057893;28;20230;-64
2022/05/25 04:13:25;;;;;;;;;;;12.30;99.90;;;;;;5046344;28;20226;-65
2022/05/25 04:15:54;;;;;;;;;;;12.30;99.90;;;;;;5054740;28;20689;-66
2022/05/25 04:18:22;;;;;;;;;;;12.40;99.90;;;;;;5061573;28;20232;-65
2022/05/25 04:20:50;;;;;;;;;;;12.40;99.90;;;;;;5049949;28;20229;-65
2022/05/25 04:23:17;;;;;;;;;;;12.50;99.90;;;;;;5047039;28;20206;-65
2022/05/25 04:25:45;;;;;;;;;;;12.80;99.90;;;;;;5053944;28;20285;-65
2022/05/25 04:28:13;;;;;;;;;;;13.00;99.90;;;;;;5052693;28;20218;-65
2022/05/25 04:30:40;;;;;;;;;;;13.00;99.90;;;;;;5053426;28;20699;-65
2022/05/25 04:33:09;;;;;;;;;;;13.10;99.90;;;;;;5037000;28;20294;-65
2022/05/25 04:35:37;;;;;;;;;;;13.00;99.90;;;;;;5039852;28;20659;-66
2022/05/25 04:38:06;;;;;;;;;;;12.90;99.90;;;;;;5037262;28;20198;-66
2022/05/25 04:40:35;;;;;;;;;;;12.80;99.90;;;;;;5035908;28;20202;-65
2022/05/25 04:43:05;;;;;;;;;;;12.90;99.90;;;;;;5039240;28;20209;-65
2022/05/25 04:45:33;;;;;;;;;;;12.80;99.90;;;;;;5039297;28;20198;-65
2022/05/25 04:48:02;;;;;;;;;;;12.70;99.90;;;;;;5036904;28;20253;-64
2022/05/25 04:50:33;;;;;;;;;;;12.70;99.90;;;;;;5038511;28;20298;-65
2022/05/25 04:53:01;;;;;;;;;;;13.00;99.90;;;;;;5036149;28;20260;-65
2022/05/25 04:58:19;;;;;;;;;;;13.40;99.90;;;;;;5038392;28;20233;-65
2022/05/25 05:00:46;;;;;;;;;;;13.50;99.90;;;;;;5033115;28;20237;-66
2022/05/25 05:03:14;;;;;;;;;;;13.70;99.90;;;;;;5037200;28;20238;-66
2022/05/25 05:05:43;;;;;;;;;;;13.80;99.90;;;;;;5034210;28;20209;-65
2022/05/25 05:08:11;;;;;;;;;;;13.90;99.90;;;;;;5035926;28;20198;-65
2022/05/25 05:10:39;;;;;;;;;;;13.90;99.90;;;;;;5035654;28;20238;-66
2022/05/25 05:13:07;;;;;;;;;;;13.80;99.90;;;;;;5037691;28;21131;-65
2022/05/25 05:15:36;;;;;;;;;;;13.80;99.90;;;;;;5039378;28;20206;-66
2022/05/25 05:18:04;;;;;;;;;;;13.80;99.90;;;;;;5038403;28;20388;-65
2022/05/25 05:20:32;;;;;;;;;;;13.90;99.90;;;;;;5035692;28;20229;-65
2022/05/25 05:23:01;;;;;;;;;;;13.80;99.90;;;;;;5037193;28;20202;-65
2022/05/25 05:25:30;;;;;;;;;;;13.80;99.90;;;;;;5037388;28;20205;-65
2022/05/25 05:28:03;;;;;;;;;;;13.70;99.90;;;;;;5037676;28;20276;-65
2022/05/25 05:30:34;;;;;;;;;;;13.90;99.90;;;;;;5033275;28;20368;-65
2022/05/25 05:33:01;;;;;;;;;;;13.90;99.90;;;;;;5034132;28;20226;-65
2022/05/25 05:35:30;;;;;;;;;;;13.80;99.90;;;;;;5031519;28;20227;-66
2022/05/25 05:37:58;;;;;;;;;;;13.80;99.90;;;;;;5037637;28;20214;-65
2022/05/25 05:40:27;;;;;;;;;;;13.70;99.90;;;;;;5036700;28;20223;-65
2022/05/25 05:42:55;;;;;;;;;;;13.50;99.90;;;;;;5038131;28;20214;-65
2022/05/25 05:45:24;;;;;;;;;;;13.60;99.90;;;;;;5034788;28;20213;-66
2022/05/25 05:47:57;;;;;;;;;;;13.60;99.90;;;;;;5038316;28;20220;-68
2022/05/25 05:50:26;;;;;;;;;;;13.60;99.90;;;;;;5032911;28;20317;-67
2022/05/25 05:52:53;;;;;;;;;;;13.80;99.90;;;;;;5038377;28;20198;-66
2022/05/25 05:55:22;;;;;;;;;;;13.80;99.90;;;;;;5035884;28;20361;-65
2022/05/25 05:57:51;;;;;;;;;;;13.90;99.90;;;;;;5031128;28;20202;-65
2022/05/25 06:00:19;;;;;;;;;;;14.10;99.90;;;;;;5031641;28;20190;-66
2022/05/25 06:02:46;;;;;;;;;;;14.10;99.90;;;;;;5036921;28;20337;-66
2022/05/25 06:05:14;;;;;;;;;;;14.30;99.90;;;;;;5046927;28;20232;-66
2022/05/25 06:07:42;;;;;;;;;;;14.40;99.90;;;;;;5055757;28;20288;-65
2022/05/25 06:10:11;;;;;;;;;;;14.40;99.90;;;;;;5051176;28;20207;-65
2022/05/25 06:12:43;;;;;;;;;;;14.70;99.90;;;;;;5050413;28;20206;-65
2022/05/25 06:20:47;;;;;;;;;;;15.10;99.90;;;;;;5047773;28;20237;-66
2022/05/25 06:23:15;;;;;;;;;;;15.10;99.90;;;;;;5050770;28;20241;-65
2022/05/25 06:25:43;;;;;;;;;;;15.30;99.90;;;;;;5051155;28;20249;-65
2022/05/25 06:28:11;;;;;;;;;;;15.40;99.90;;;;;;5051142;28;20647;-66
2022/05/25 06:30:40;;;;;;;;;;;15.50;99.90;;;;;;5051493;28;20198;-65
2022/05/25 06:33:08;;;;;;;;;;;15.70;99.90;;;;;;5050544;28;20242;-65
2022/05/25 06:35:36;;;;;;;;;;;15.70;99.90;;;;;;5051406;28;20210;-65
2022/05/25 06:38:04;;;;;;;;;;;15.70;99.90;;;;;;5051302;28;20587;-65
2022/05/25 06:40:31;;;;;;;;;;;15.90;99.90;;;;;;5051365;28;20547;-65
2022/05/25 06:42:59;;;;;;;;;;;16.00;99.90;;;;;;5047301;28;20217;-65
2022/05/25 06:45:27;;;;;;;;;;;16.10;99.90;;;;;;5056544;28;20881;-65
2022/05/25 06:47:56;;;;;;;;;;;16.20;99.90;;;;;;5051166;28;20194;-65
2022/05/25 06:50:25;;;;;;;;;;;16.20;99.90;;;;;;5051472;28;20207;-65
2022/05/25 06:52:53;;;;;;;;;;;16.30;99.90;;;;;;5050335;28;20297;-65
2022/05/25 06:55:20;;;;;;;;;;;16.30;99.90;;;;;;5051059;28;20718;-65
2022/05/25 06:57:49;;;;;;;;;;;16.40;99.90;;;;;;5050970;28;20202;-65
2022/05/25 07:00:17;;;;;;;;;;;16.60;99.90;;;;;;5051032;28;20255;-65
2022/05/25 07:02:44;;;;;;;;;;;16.70;99.90;;;;;;5052821;28;20628;-65
2022/05/25 07:05:13;;;;;;;;;;;16.70;99.90;;;;;;5055214;28;20238;-62
2022/05/25 07:07:41;;;;;;;;;;;16.80;99.90;;;;;;5054946;28;20206;-63
2022/05/25 07:10:09;;;;;;;;;;;16.90;99.90;;;;;;5054696;28;20245;-64
2022/05/25 07:12:37;;;;;;;;;;;17.00;99.90;;;;;;5053600;28;20208;-64
2022/05/25 07:15:06;;;;;;;;;;;17.10;99.90;;;;;;5051683;28;20244;-63
2022/05/25 07:17:34;;;;;;;;;;;17.10;99.90;;;;;;5054734;28;20210;-64
2022/05/25 07:20:02;;;;;;;;;;;17.10;99.90;;;;;;5054789;28;20194;-63
2022/05/25 07:22:31;;;;;;;;;;;17.10;99.90;;;;;;5053945;28;20312;-63
2022/05/25 07:24:59;;;;;;;;;;;17.20;99.90;;;;;;5054709;28;20676;-62
2022/05/25 07:27:27;;;;;;;;;;;17.40;99.90;;;;;;5054796;28;20209;-66
2022/05/25 07:29:54;;;;;;;;;;;17.30;99.90;;;;;;5054458;28;20305;-66
2022/05/25 07:32:23;;;;;;;;;;;17.40;99.90;;;;;;5053945;28;20238;-65
2022/05/25 07:34:54;;;;;;;;;;;17.50;99.90;;;;;;5054581;28;20738;-66
2022/05/25 07:37:32;;;;;;;;;;;17.60;99.90;;;;;;5054520;28;20205;-65
2022/05/25 07:40:04;;;;;;;;;;;17.70;99.90;;;;;;5054468;28;20551;-66
2022/05/25 07:42:32;;;;;;;;;;;17.70;99.90;;;;;;5050331;28;20725;-66
2022/05/25 07:45:01;;;;;;;;;;;17.80;99.90;;;;;;5059723;28;20305;-66
2022/05/25 07:47:31;;;;;;;;;;;17.90;99.90;;;;;;5054096;28;20633;-64
2022/05/25 07:49:58;;;;;;;;;;;18.00;99.90;;;;;;5054315;28;20202;-63
2022/05/25 07:52:27;;;;;;;;;;;18.10;99.90;;;;;;5053920;28;20210;-64
2022/05/25 07:54:56;;;;;;;;;;;18.30;99.90;;;;;;5054137;28;20281;-63
2022/05/25 07:57:25;;;;;;;;;;;18.30;99.90;;;;;;5053979;28;20252;-64
2022/05/25 07:59:52;;;;;;;;;;;18.50;99.90;;;;;;5053824;28;20190;-64
2022/05/25 08:07:54;;;;;;;;;;;18.80;99.90;;;;;;5053395;28;20729;-63
2022/05/25 08:10:24;;;;;;;;;;;19.00;99.90;;;;;;5053920;28;20202;-64
2022/05/25 08:12:55;;;;;;;;;;;19.20;99.90;;;;;;5052449;28;20668;-64
2022/05/25 08:15:24;;;;;;;;;;;19.20;99.90;;;;;;5053525;28;20130;-62
2022/05/25 08:17:52;;;;;;;;;;;19.30;99.90;;;;;;5053243;28;20114;-63
2022/05/25 08:20:21;;;;;;;;;;;19.40;99.90;;;;;;5053840;28;20213;-64
2022/05/25 08:22:49;;;;;;;;;;;19.60;99.90;;;;;;5053165;28;20683;-64
2022/05/25 08:25:17;;;;;;;;;;;19.80;99.90;;;;;;5053739;28;20230;-63
2022/05/25 08:27:45;;;;;;;;;;;20.00;99.90;;;;;;5053224;28;20257;-63
2022/05/25 08:30:16;;;;;;;;;;;20.20;99.90;;;;;;5053493;28;20245;-64
2022/05/25 08:32:44;;;;;;;;;;;20.20;99.90;;;;;;5053282;28;20618;-64
2022/05/25 08:35:12;;;;;;;;;;;20.30;99.90;;;;;;5053347;28;20202;-64
2022/05/25 08:37:41;;;;;;;;;;;20.40;99.90;;;;;;5053254;28;20202;-63
2022/05/25 08:40:10;;;;;;;;;;;20.50;99.90;;;;;;5053384;28;20248;-64
2022/05/25 08:42:46;;;;;;;;;;;20.80;99.90;;;;;;5052450;28;20206;-64
2022/05/25 08:45:16;;;;;;;;;;;20.90;99.90;;;;;;5050380;28;20268;-64
2022/05/25 08:47:45;;;;;;;;;;;20.70;99.90;;;;;;5050950;28;20252;-63
2022/05/25 08:50:13;;;;;;;;;;;20.60;99.90;;;;;;5052934;28;20198;-64
2022/05/25 08:52:40;;;;;;;;;;;20.90;99.90;;;;;;5052379;28;20245;-64
2022/05/25 08:55:10;;;;;;;;;;;21.10;99.90;;;;;;5053209;28;20241;-64
2022/05/25 08:57:41;;;;;;;;;;;21.20;99.90;;;;;;5052789;28;20202;-64
2022/05/25 09:00:10;;;;;;;;;;;21.40;99.90;;;;;;5052853;28;20290;-64
2022/05/25 09:02:45;;;;;;;;;;;21.60;98.40;;;;;;5052272;28;20246;-62
2022/05/25 09:05:16;;;;;;;;;;;21.80;98.30;;;;;;5052997;28;20206;-67
2022/05/25 09:07:49;;;;;;;;;;;21.90;98.20;;;;;;5052569;28;20257;-66
2022/05/25 09:10:18;;;;;;;;;;;21.80;97.80;;;;;;5083182;22;20202;-65
2022/05/25 09:12:48;;;;;;;;;;;21.60;97.60;;;;;;5063673;28;20202;-64
2022/05/25 09:15:18;;;;;;;;;;;21.50;97.90;;;;;;5070486;28;20220;-65
2022/05/25 09:17:48;;;;;;;;;;;21.80;99.70;;;;;;5059924;28;20259;-64
2022/05/25 09:20:17;;;;;;;;;;;21.70;97.60;;;;;;5054793;28;20248;-64
2022/05/25 09:22:52;;;;;;;;;;;21.80;97.80;;;;;;5051420;28;20294;-65
2022/05/25 09:25:21;;;;;;;;;;;22.10;97.60;;;;;;5052026;28;20659;-64
2022/05/25 09:27:58;;;;;;;;;;;21.80;96.60;;;;;;5051734;28;20198;-65
2022/05/25 09:30:26;;;;;;;;;;;21.80;96.60;;;;;;5051853;28;20256;-64
2022/05/25 09:32:59;;;;;;;;;;;21.90;96.10;;;;;;5051278;28;20229;-64
2022/05/25 09:35:29;;;;;;;;;;;22.20;96.30;;;;;;5051852;28;20230;-63
2022/05/25 09:37:58;;;;;;;;;;;22.50;96.60;;;;;;5051822;28;20297;-64
2022/05/25 09:40:32;;;;;;;;;;;22.70;95.00;;;;;;5051830;28;20290;-64
2022/05/25 09:43:02;;;;;;;;;;;22.90;95.80;;;;;;5051082;28;20233;-65
2022/05/25 09:45:36;;;;;;;;;;;22.70;94.70;;;;;;5047977;28;20257;-64
2022/05/25 09:48:14;;;;;;;;;;;22.70;94.80;;;;;;5037561;28;20227;-64
2022/05/25 09:50:43;;;;;;;;;;;22.80;94.70;;;;;;5038886;28;20249;-65
2022/05/25 09:53:14;;;;;;;;;;;22.90;93.00;;;;;;5031797;28;20652;-64
2022/05/25 09:55:43;;;;;;;;;;;22.80;92.90;;;;;;5051323;28;20583;-64
2022/05/25 09:58:12;;;;;;;;;;;23.10;93.90;;;;;;5051438;28;20194;-64
2022/05/25 10:00:48;;;;;;;;;;;23.10;93.30;;;;;;5025839;28;20225;-64
2022/05/25 10:03:26;;;;;;;;;;;23.00;92.50;;;;;;5026679;28;20246;-65
2022/05/25 10:05:55;;;;;;;;;;;22.70;92.90;;;;;;5032442;28;20666;-65
2022/05/25 10:08:27;;;;;;;;;;;22.90;93.90;;;;;;5031798;28;20231;-64
2022/05/25 10:10:56;;;;;;;;;;;23.20;92.80;;;;;;5032272;28;20571;-65
2022/05/25 10:13:25;;;;;;;;;;;23.70;93.30;;;;;;5031593;28;20214;-64
2022/05/25 10:15:53;;;;;;;;;;;24.10;91.90;;;;;;5032939;28;20292;-65
2022/05/25 10:18:35;;;;;;;;;;;24.30;91.50;;;;;;5041230;28;20225;-64
2022/05/25 10:21:04;;;;;;;;;;;24.60;91.30;;;;;;5050828;28;20625;-64
2022/05/25 10:23:32;;;;;;;;;;;24.30;91.60;;;;;;5050111;28;20573;-64
2022/05/25 10:26:10;;;;;;;;;;;23.80;90.00;;;;;;5050826;28;20237;-64
2022/05/25 10:28:46;;;;;;;;;;;23.60;90.80;;;;;;5025588;28;20245;-64
2022/05/25 10:36:56;;;;;;;;;;;23.20;91.00;;;;;;5051002;28;20279;-64
2022/05/25 10:39:31;;;;;;;;;;;23.70;91.70;;;;;;5025969;28;20199;-65
2022/05/25 10:42:00;;;;;;;;;;;24.20;90.90;;;;;;5031123;28;20238;-64
2022/05/25 10:44:30;;;;;;;;;;;24.60;90.30;;;;;;5031740;28;20258;-65
2022/05/25 10:46:58;;;;;;;;;;;24.70;88.90;;;;;;5043381;28;20726;-64
2022/05/25 10:49:34;;;;;;;;;;;24.50;86.80;;;;;;5044599;28;20245;-65
2022/05/25 10:52:04;;;;;;;;;;;23.40;87.20;;;;;;5050236;28;20656;-64
2022/05/25 10:54:47;;;;;;;;;;;22.90;88.80;;;;;;5050733;28;20252;-65
2022/05/25 10:57:23;;;;;;;;;;;22.80;89.30;;;;;;5051877;28;20202;-64
2022/05/25 10:59:57;;;;;;;;;;;22.70;90.00;;;;;;5050705;28;20206;-64
2022/05/25 11:02:34;;;;;;;;;;;23.10;88.80;;;;;;5050149;28;20656;-65
2022/05/25 11:05:16;;;;;;;;;;;23.20;89.50;;;;;;5050605;28;20207;-64
2022/05/25 11:07:44;;;;;;;;;;;23.10;89.00;;;;;;5050651;28;20734;-64
2022/05/25 11:10:18;;;;;;;;;;;22.90;90.20;;;;;;5050239;28;20215;-64
2022/05/25 11:12:54;;;;;;;;;;;22.80;90.20;;;;;;5049904;28;20198;-64
2022/05/25 11:15:25;;;;;;;;;;;22.80;90.00;;;;;;5048665;28;20230;-64
2022/05/25 11:18:00;;;;;;;;;;;22.90;91.10;;;;;;5037225;28;20659;-64
2022/05/25 11:20:32;;;;;;;;;;;23.30;90.80;;;;;;5025444;28;20203;-64
2022/05/25 11:23:12;;;;;;;;;;;23.70;88.40;;;;;;5030901;28;20659;-64
2022/05/25 11:25:49;;;;;;;;;;;24.00;88.20;;;;;;5031495;28;20237;-64
2022/05/25 11:28:22;;;;;;;;;;;24.40;87.90;;;;;;5031192;28;20215;-64
2022/05/25 11:30:57;;;;;;;;;;;25.00;88.10;;;;;;5031519;28;20207;-65
2022/05/25 11:33:38;;;;;;;;;;;25.40;85.20;;;;;;5030759;28;20206;-63
2022/05/25 11:36:32;;;;;;;;;;;25.50;84.50;;;;;;5031267;28;20201;-65
2022/05/25 11:39:04;;;;;;;;;;;25.50;83.50;;;;;;5031374;28;20215;-65
2022/05/25 11:41:37;;;;;;;;;;;25.40;85.00;;;;;;5031383;28;20206;-64
2022/05/25 11:44:22;;;;;;;;;;;25.30;81.90;;;;;;5030660;28;20238;-64
2022/05/25 11:46:51;;;;;;;;;;;25.20;85.60;;;;;;5040931;28;20206;-65
2022/05/25 11:49:40;;;;;;;;;;;25.50;85.20;;;;;;5046100;28;20292;-64
2022/05/25 11:52:16;;;;;;;;;;;25.90;80.70;;;;;;5053847;28;20748;-65
2022/05/25 11:54:47;;;;;;;;;;;25.90;84.50;;;;;;5053896;28;20202;-65
2022/05/25 11:57:17;;;;;;;;;;;26.00;81.30;;;;;;5053786;28;20293;-64
2022/05/25 11:59:55;;;;;;;;;;;26.00;78.00;;;;;;5053849;28;20209;-64
2022/05/25 12:02:38;;;;;;;;;;;26.10;80.60;;;;;;5053051;28;20201;-65
2022/05/25 12:05:11;;;;;;;;;;;26.30;79.20;;;;;;5053875;28;20699;-65
2022/05/25 12:07:48;;;;;;;;;;;26.50;76.60;;;;;;5053570;28;20241;-64
2022/05/25 12:10:25;;;;;;;;;;;26.40;75.90;;;;;;5053187;28;20213;-65
2022/05/25 12:12:56;;;;;;;;;;;26.40;76.60;;;;;;5052934;28;20289;-64
2022/05/25 12:15:26;;;;;;;;;;;26.50;76.20;;;;;;5050840;28;20767;-64
2022/05/25 12:18:07;;;;;;;;;;;27.10;76.90;;;;;;5039687;28;20198;-65
2022/05/25 12:20:36;;;;;;;;;;;27.10;74.90;;;;;;5028939;28;20297;-65
2022/05/25 12:23:07;;;;;;;;;;;27.30;77.40;;;;;;5033565;28;20203;-65
2022/05/25 12:25:36;;;;;;;;;;;27.40;76.40;;;;;;5034073;28;20195;-65
2022/05/25 12:28:04;;;;;;;;;;;27.50;74.70;;;;;;5033992;28;20231;-65
2022/05/25 12:30:33;;;;;;;;;;;26.50;72.70;;;;;;5033928;28;20239;-65
2022/05/25 12:33:01;;;;;;;;;;;25.90;74.40;;;;;;5033061;28;20603;-64
2022/05/25 12:35:31;;;;;;;;;;;25.80;76.00;;;;;;5033863;28;20233;-64
2022/05/25 12:37:59;;;;;;;;;;;26.00;74.50;;;;;;5033991;28;20290;-64
2022/05/25 12:40:48;;;;;;;;;;;26.40;76.40;;;;;;5033841;28;20844;-64
2022/05/25 12:43:34;;;;;;;;;;;26.10;73.90;;;;;;5028344;28;20310;-64
2022/05/25 12:48:53;;;;;;;;;;;26.10;75.50;;;;;;5045424;28;20289;-65
2022/05/25 12:51:36;;;;;;;;;;;26.50;73.90;;;;;;5052800;28;20256;-64
2022/05/25 12:54:06;;;;;;;;;;;26.90;73.90;;;;;;5052209;28;20194;-65
2022/05/25 12:56:35;;;;;;;;;;;27.30;72.70;;;;;;5052745;28;20248;-65
2022/05/25 12:59:06;;;;;;;;;;;27.50;72.60;;;;;;5026543;28;20194;-65
2022/05/25 13:01:37;;;;;;;;;;;27.50;70.60;;;;;;5027183;28;20209;-65
2022/05/25 13:04:16;;;;;;;;;;;27.10;71.70;;;;;;5032808;28;20217;-65
2022/05/25 13:07:03;;;;;;;;;;;26.80;72.10;;;;;;5033779;28;20199;-65
2022/05/25 13:09:35;;;;;;;;;;;26.80;73.20;;;;;;5033020;28;20264;-65
2022/05/25 13:12:17;;;;;;;;;;;27.00;70.50;;;;;;5033096;28;20199;-65
2022/05/25 13:14:56;;;;;;;;;;;27.40;72.00;;;;;;5033220;28;20206;-65
2022/05/25 13:17:45;;;;;;;;;;;27.80;71.40;;;;;;5037469;28;20195;-65
2022/05/25 13:20:14;;;;;;;;;;;27.80;69.80;;;;;;5050403;28;20214;-65
2022/05/25 13:22:42;;;;;;;;;;;27.40;70.30;;;;;;5051443;28;20226;-65
2022/05/25 13:25:14;;;;;;;;;;;26.70;69.60;;;;;;5052107;28;20237;-65
2022/05/25 13:27:53;;;;;;;;;;;25.80;72.50;;;;;;5052361;28;20733;-64
2022/05/25 13:30:42;;;;;;;;;;;26.20;70.90;;;;;;5051822;28;20253;-65
2022/05/25 13:33:23;;;;;;;;;;;26.10;71.00;;;;;;5028641;28;20602;-64
2022/05/25 13:35:52;;;;;;;;;;;25.60;70.60;;;;;;5032912;28;20241;-64
2022/05/25 13:38:25;;;;;;;;;;;25.10;71.40;;;;;;5032795;28;20393;-64
2022/05/25 13:40:56;;;;;;;;;;;24.60;73.80;;;;;;5032576;28;20248;-64
2022/05/25 13:43:30;;;;;;;;;;;24.40;73.10;;;;;;5031940;28;20668;-64
2022/05/25 13:45:58;;;;;;;;;;;24.80;75.20;;;;;;5029975;28;20226;-64
2022/05/25 13:48:27;;;;;;;;;;;25.80;74.60;;;;;;5038653;28;20203;-64
2022/05/25 13:50:56;;;;;;;;;;;26.40;71.20;;;;;;5026260;28;20297;-65
2022/05/25 13:53:31;;;;;;;;;;;25.70;71.20;;;;;;5025759;28;20198;-65
2022/05/25 13:56:07;;;;;;;;;;;25.30;71.10;;;;;;5032357;28;20202;-64
2022/05/25 13:58:37;;;;;;;;;;;24.50;72.80;;;;;;5032399;28;20608;-64
2022/05/25 14:01:07;;;;;;;;;;;24.30;72.80;;;;;;5032210;28;20278;-64
2022/05/25 14:03:38;;;;;;;;;;;24.80;73.60;;;;;;5031738;28;20202;-65
2022/05/25 14:06:06;;;;;;;;;;;25.00;73.50;;;;;;5032863;28;20669;-64
2022/05/25 14:11:25;;;;;;;;;;;25.00;72.40;;;;;;5031576;28;20230;-64
2022/05/25 14:13:53;;;;;;;;;;;24.90;73.20;;;;;;5050917;28;20702;-64
2022/05/25 14:16:21;;;;;;;;;;;24.40;72.70;;;;;;5040772;28;20207;-65
2022/05/25 14:18:52;;;;;;;;;;;24.60;72.20;;;;;;5042910;28;20203;-64
2022/05/25 14:21:29;;;;;;;;;;;24.70;72.30;;;;;;5050999;28;20236;-64
2022/05/25 14:23:57;;;;;;;;;;;24.40;71.00;;;;;;5026423;28;20237;-64
2022/05/25 14:26:26;;;;;;;;;;;24.40;72.60;;;;;;5032059;28;20210;-64
2022/05/25 14:28:55;;;;;;;;;;;24.70;71.00;;;;;;5031805;28;20207;-64
2022/05/25 14:31:23;;;;;;;;;;;25.30;71.40;;;;;;5031608;28;20676;-64
2022/05/25 14:34:03;;;;;;;;;;;25.60;71.50;;;;;;5031297;28;20203;-65
2022/05/25 14:36:31;;;;;;;;;;;25.10;71.60;;;;;;5031985;28;20269;-64
2022/05/25 14:38:59;;;;;;;;;;;25.50;71.90;;;;;;5031703;28;20199;-65
2022/05/25 14:41:30;;;;;;;;;;;25.40;70.80;;;;;;5031823;28;20199;-65
2022/05/25 14:43:58;;;;;;;;;;;25.30;71.70;;;;;;5031265;28;20210;-65
2022/05/25 14:46:27;;;;;;;;;;;25.40;71.10;;;;;;5033307;28;20229;-64
2022/05/25 14:49:02;;;;;;;;;;;25.80;71.30;;;;;;5035487;28;20203;-65
2022/05/25 14:51:34;;;;;;;;;;;25.50;70.20;;;;;;5040725;28;20230;-64
2022/05/25 14:54:04;;;;;;;;;;;25.80;70.60;;;;;;5049901;28;20195;-64
2022/05/25 14:56:33;;;;;;;;;;;26.00;70.10;;;;;;5050962;28;20202;-65
2022/05/25 14:59:00;;;;;;;;;;;25.60;69.10;;;;;;5050659;28;20202;-64
2022/05/25 15:01:29;;;;;;;;;;;25.20;70.50;;;;;;5050595;28;20202;-64
2022/05/25 15:04:02;;;;;;;;;;;24.90;72.00;;;;;;5050003;28;20202;-64